Time;durP1;ratioP1;P1;durP2;ratioP2;P2;SDS_P1;SDS_P2;PMS_P1;PMS_P2;Temp;Humidity;BMP_temperature;BMP_pressure;BME280_temperature;BME280_humidity;BME280_pressure;Samples;Min_cycle;Max_cycle;Signal;HPM_P1;HPM_P2
2022/07/27 00:03:34;;;;;;;;;;;20.20;53.70;;;;;;4992081;28;19921;-89
2022/07/27 00:06:23;;;;;;;;;;;20.10;53.90;;;;;;4999958;28;20373;-89
2022/07/27 00:08:48;;;;;;;;;;;20.10;54.00;;;;;;4969785;28;19933;-89
2022/07/27 00:11:14;;;;;;;;;;;20.10;53.90;;;;;;4979694;28;19963;-89
2022/07/27 00:13:40;;;;;;;;;;;20.00;54.10;;;;;;4981234;28;19914;-89
2022/07/27 00:16:06;;;;;;;;;;;20.00;54.10;;;;;;4993357;28;19922;-90
2022/07/27 00:18:31;;;;;;;;;;;20.10;54.20;;;;;;4999137;28;19913;-89
2022/07/27 00:20:57;;;;;;;;;;;20.10;54.30;;;;;;4987594;28;19918;-89
2022/07/27 00:23:25;;;;;;;;;;;20.10;54.40;;;;;;4997185;28;19918;-89
2022/07/27 00:25:51;;;;;;;;;;;20.10;54.40;;;;;;4997952;28;20366;-89
2022/07/27 00:28:16;;;;;;;;;;;20.20;54.50;;;;;;4997368;28;19945;-89
2022/07/27 00:30:42;;;;;;;;;;;20.20;54.50;;;;;;5014471;28;19965;-89
2022/07/27 00:33:07;;;;;;;;;;;20.20;54.40;;;;;;4998353;28;19917;-90
2022/07/27 00:35:33;;;;;;;;;;;20.30;54.40;;;;;;5011075;28;19918;-90
2022/07/27 00:37:58;;;;;;;;;;;20.30;54.40;;;;;;5011630;28;19977;-89
2022/07/27 00:40:27;;;;;;;;;;;20.30;54.40;;;;;;5008114;28;19965;-89
2022/07/27 00:42:52;;;;;;;;;;;20.30;54.30;;;;;;4979126;28;19956;-89
2022/07/27 00:45:18;;;;;;;;;;;20.30;54.40;;;;;;4978932;28;19918;-89
2022/07/27 00:47:46;;;;;;;;;;;20.20;54.30;;;;;;4995428;28;19921;-89
2022/07/27 00:50:12;;;;;;;;;;;20.20;54.40;;;;;;4980088;28;20064;-88
2022/07/27 00:52:39;;;;;;;;;;;20.10;54.40;;;;;;4980169;28;19965;-89
2022/07/27 00:55:08;;;;;;;;;;;20.00;54.40;;;;;;4980565;28;20216;-88
2022/07/27 00:57:33;;;;;;;;;;;20.00;54.50;;;;;;4979871;28;19914;-89
2022/07/27 00:59:59;;;;;;;;;;;20.00;54.60;;;;;;4994662;28;19937;-90
2022/07/27 01:02:27;;;;;;;;;;;19.90;54.60;;;;;;4979336;28;19918;-90
2022/07/27 01:04:53;;;;;;;;;;;19.90;54.60;;;;;;5008537;28;19924;-89
2022/07/27 01:07:19;;;;;;;;;;;19.90;54.70;;;;;;4988661;28;20009;-89
2022/07/27 01:09:56;;;;;;;;;;;19.80;54.80;;;;;;4982843;28;19922;-89
2022/07/27 01:12:25;;;;;;;;;;;19.80;54.80;;;;;;4985706;28;21834;-90
2022/07/27 01:14:51;;;;;;;;;;;19.80;54.90;;;;;;4991261;28;19958;-89
2022/07/27 01:17:16;;;;;;;;;;;19.80;54.90;;;;;;4988709;28;19918;-89
2022/07/27 01:19:42;;;;;;;;;;;19.70;54.90;;;;;;4986933;28;19984;-89
2022/07/27 01:22:08;;;;;;;;;;;19.70;55.00;;;;;;5009683;28;19936;-89
2022/07/27 01:24:34;;;;;;;;;;;19.70;55.00;;;;;;4990598;28;19918;-89
2022/07/27 01:27:00;;;;;;;;;;;19.70;55.00;;;;;;4989623;28;20292;-89
2022/07/27 01:29:26;;;;;;;;;;;19.70;55.10;;;;;;4997559;28;19921;-89
2022/07/27 01:31:52;;;;;;;;;;;19.70;55.10;;;;;;4999171;28;19913;-90
2022/07/27 01:34:17;;;;;;;;;;;19.70;55.20;;;;;;4996564;28;19957;-90
2022/07/27 01:36:44;;;;;;;;;;;19.70;55.20;;;;;;4992634;28;19914;-90
2022/07/27 01:39:10;;;;;;;;;;;19.70;55.20;;;;;;5002810;28;19921;-90
2022/07/27 01:41:36;;;;;;;;;;;19.70;55.20;;;;;;4997772;28;19965;-90
2022/07/27 01:44:01;;;;;;;;;;;19.70;55.20;;;;;;4988863;28;19910;-90
2022/07/27 01:46:27;;;;;;;;;;;19.70;55.20;;;;;;4991189;28;20009;-89
2022/07/27 01:48:53;;;;;;;;;;;19.70;55.30;;;;;;4986686;28;19921;-89
2022/07/27 01:51:18;;;;;;;;;;;19.70;55.20;;;;;;4998034;28;19925;-89
2022/07/27 01:53:44;;;;;;;;;;;19.70;55.20;;;;;;4996107;28;20279;-89
2022/07/27 01:56:10;;;;;;;;;;;19.60;55.20;;;;;;4992606;28;19922;-90
2022/07/27 01:58:38;;;;;;;;;;;19.50;55.20;;;;;;4993417;28;19914;-89
2022/07/27 02:01:06;;;;;;;;;;;19.50;55.30;;;;;;4989437;28;20370;-89
2022/07/27 02:03:32;;;;;;;;;;;19.40;55.40;;;;;;4984924;28;19914;-90
2022/07/27 02:05:58;;;;;;;;;;;19.40;55.40;;;;;;4992483;28;19929;-90
2022/07/27 02:08:23;;;;;;;;;;;19.30;55.40;;;;;;4997869;28;19945;-90
2022/07/27 02:13:33;;;;;;;;;;;19.30;55.40;;;;;;4978996;28;19921;-90
2022/07/27 02:15:58;;;;;;;;;;;19.30;55.70;;;;;;4997276;28;19922;-88
2022/07/27 02:18:24;;;;;;;;;;;19.20;55.60;;;;;;4996102;28;19996;-88
2022/07/27 02:20:50;;;;;;;;;;;19.20;55.70;;;;;;4982378;28;20029;-90
2022/07/27 02:23:15;;;;;;;;;;;19.20;55.70;;;;;;4999115;28;19914;-90
2022/07/27 02:25:41;;;;;;;;;;;19.20;55.70;;;;;;4989019;28;19922;-90
2022/07/27 02:28:06;;;;;;;;;;;19.20;55.70;;;;;;4989230;28;19917;-90
2022/07/27 02:30:32;;;;;;;;;;;19.30;55.70;;;;;;4993280;28;20266;-90
2022/07/27 02:32:57;;;;;;;;;;;19.20;55.70;;;;;;4996495;28;20389;-89
2022/07/27 02:35:25;;;;;;;;;;;19.20;55.70;;;;;;4997912;28;19917;-90
2022/07/27 02:37:51;;;;;;;;;;;19.20;55.70;;;;;;4999280;28;20281;-90
2022/07/27 02:40:17;;;;;;;;;;;19.10;55.70;;;;;;4990799;28;19922;-89
2022/07/27 02:42:42;;;;;;;;;;;19.00;55.70;;;;;;4996903;28;19913;-90
2022/07/27 02:45:08;;;;;;;;;;;19.00;55.70;;;;;;4988990;28;19924;-90
2022/07/27 02:47:34;;;;;;;;;;;18.90;55.70;;;;;;4996622;28;20345;-89
2022/07/27 02:50:00;;;;;;;;;;;18.90;55.70;;;;;;4997476;28;20408;-90
2022/07/27 02:52:26;;;;;;;;;;;18.80;55.70;;;;;;4995639;28;19964;-90
2022/07/27 02:54:52;;;;;;;;;;;18.80;55.70;;;;;;5008471;28;20337;-90
2022/07/27 02:57:17;;;;;;;;;;;18.80;55.70;;;;;;4997065;28;19913;-89
2022/07/27 02:59:43;;;;;;;;;;;18.70;55.70;;;;;;4988352;28;20008;-90
2022/07/27 03:02:08;;;;;;;;;;;18.70;55.80;;;;;;4995249;28;19915;-90
2022/07/27 03:04:36;;;;;;;;;;;18.70;55.90;;;;;;4992801;28;19918;-89
2022/07/27 03:07:02;;;;;;;;;;;18.70;56.00;;;;;;4983917;28;19925;-90
2022/07/27 03:09:27;;;;;;;;;;;18.80;56.10;;;;;;4984133;28;19918;-89
2022/07/27 03:11:56;;;;;;;;;;;18.80;56.10;;;;;;4977860;28;19993;-90
2022/07/27 03:14:21;;;;;;;;;;;18.80;56.00;;;;;;4985106;28;19926;-90
2022/07/27 03:16:47;;;;;;;;;;;18.90;56.00;;;;;;4994865;28;19914;-90
2022/07/27 03:19:12;;;;;;;;;;;18.90;56.00;;;;;;4991899;28;19910;-90
2022/07/27 03:21:38;;;;;;;;;;;18.90;56.00;;;;;;5003468;28;20282;-89
2022/07/27 03:24:03;;;;;;;;;;;18.90;56.00;;;;;;4994670;28;19967;-91
2022/07/27 03:26:29;;;;;;;;;;;19.00;56.00;;;;;;4991660;28;20000;-89
2022/07/27 03:28:56;;;;;;;;;;;19.00;56.00;;;;;;4996658;28;20386;-89
2022/07/27 03:31:21;;;;;;;;;;;19.00;55.90;;;;;;4989414;28;19949;-90
2022/07/27 03:33:47;;;;;;;;;;;19.10;55.90;;;;;;4990670;28;20354;-90
2022/07/27 03:36:12;;;;;;;;;;;19.10;55.90;;;;;;4991583;28;20318;-90
2022/07/27 03:38:37;;;;;;;;;;;19.20;55.90;;;;;;4987955;28;19921;-90
2022/07/27 03:41:03;;;;;;;;;;;19.20;55.90;;;;;;4995196;28;19944;-90
2022/07/27 03:43:29;;;;;;;;;;;19.20;55.90;;;;;;4993646;28;19937;-89
2022/07/27 03:45:55;;;;;;;;;;;19.20;55.90;;;;;;4988160;28;19922;-90
2022/07/27 03:48:20;;;;;;;;;;;19.20;55.80;;;;;;5002467;28;20383;-90
2022/07/27 03:50:45;;;;;;;;;;;19.20;55.80;;;;;;4984079;28;19919;-89
2022/07/27 03:53:11;;;;;;;;;;;19.30;55.80;;;;;;4995095;28;19937;-90
2022/07/27 03:55:36;;;;;;;;;;;19.30;55.80;;;;;;5005789;28;19919;-90
2022/07/27 03:58:02;;;;;;;;;;;19.20;55.80;;;;;;4978806;28;19914;-90
2022/07/27 04:00:27;;;;;;;;;;;19.30;55.90;;;;;;4990341;28;20005;-90
2022/07/27 04:02:53;;;;;;;;;;;19.30;55.90;;;;;;4994717;28;19914;-90
2022/07/27 04:05:19;;;;;;;;;;;19.30;55.80;;;;;;4986545;28;20023;-90
2022/07/27 04:07:45;;;;;;;;;;;19.30;55.80;;;;;;4994985;28;19910;-90
2022/07/27 04:10:10;;;;;;;;;;;19.30;55.80;;;;;;4986331;28;19925;-90
2022/07/27 04:12:36;;;;;;;;;;;19.40;55.80;;;;;;5011389;28;19916;-90
2022/07/27 04:15:02;;;;;;;;;;;19.40;55.80;;;;;;4983102;28;19918;-90
2022/07/27 04:17:27;;;;;;;;;;;19.40;55.80;;;;;;4994306;28;19910;-90
2022/07/27 04:19:53;;;;;;;;;;;19.40;55.70;;;;;;4984568;28;19917;-90
2022/07/27 04:22:18;;;;;;;;;;;19.40;55.70;;;;;;5011826;28;20440;-90
2022/07/27 04:24:44;;;;;;;;;;;19.50;55.70;;;;;;4993377;28;19918;-90
2022/07/27 04:27:09;;;;;;;;;;;19.50;55.60;;;;;;4997910;28;20401;-90
2022/07/27 04:29:35;;;;;;;;;;;19.50;55.50;;;;;;4999427;28;19906;-90
2022/07/27 04:32:00;;;;;;;;;;;19.60;55.60;;;;;;5015754;28;19920;-90
2022/07/27 04:34:26;;;;;;;;;;;19.70;55.60;;;;;;4997968;28;20333;-90
2022/07/27 04:36:51;;;;;;;;;;;19.70;55.60;;;;;;4998903;28;19920;-90
2022/07/27 04:39:17;;;;;;;;;;;19.80;55.60;;;;;;5009873;28;20008;-90
2022/07/27 04:41:42;;;;;;;;;;;19.80;55.60;;;;;;5015290;28;19957;-89
2022/07/27 04:44:08;;;;;;;;;;;19.80;55.50;;;;;;4996738;28;19910;-89
2022/07/27 04:46:33;;;;;;;;;;;19.90;55.50;;;;;;4983954;28;19914;-90
2022/07/27 04:48:59;;;;;;;;;;;20.00;55.50;;;;;;5000243;28;19941;-90
2022/07/27 04:51:24;;;;;;;;;;;20.10;55.50;;;;;;4999234;28;19925;-89
2022/07/27 04:53:50;;;;;;;;;;;20.10;55.40;;;;;;4999994;28;19914;-90
2022/07/27 04:56:15;;;;;;;;;;;20.20;55.30;;;;;;4999288;28;20290;-90
2022/07/27 04:58:41;;;;;;;;;;;20.30;55.30;;;;;;4999526;28;19977;-91
2022/07/27 05:01:06;;;;;;;;;;;20.30;55.30;;;;;;4999148;28;19925;-89
2022/07/27 05:03:32;;;;;;;;;;;20.40;55.40;;;;;;4998135;28;19909;-90
2022/07/27 05:05:57;;;;;;;;;;;20.50;55.50;;;;;;4998013;28;19969;-90
2022/07/27 05:08:26;;;;;;;;;;;20.60;55.50;;;;;;4994189;28;20357;-91
2022/07/27 05:10:52;;;;;;;;;;;20.70;55.40;;;;;;5009622;28;20397;-90
2022/07/27 05:13:17;;;;;;;;;;;20.70;55.50;;;;;;4997344;28;19993;-90
2022/07/27 05:15:43;;;;;;;;;;;20.80;55.50;;;;;;5015624;28;19917;-91
2022/07/27 05:18:08;;;;;;;;;;;20.90;55.90;;;;;;4998263;28;19925;-90
2022/07/27 05:20:35;;;;;;;;;;;20.90;55.90;;;;;;5001329;28;19917;-91
2022/07/27 05:23:00;;;;;;;;;;;21.10;56.00;;;;;;5017304;28;20373;-90
2022/07/27 05:25:26;;;;;;;;;;;21.30;55.90;;;;;;5017531;28;19917;-90
2022/07/27 05:27:52;;;;;;;;;;;21.40;55.60;;;;;;5018716;28;19910;-91
2022/07/27 05:30:18;;;;;;;;;;;21.60;55.40;;;;;;5018784;28;20377;-90
2022/07/27 05:32:44;;;;;;;;;;;21.80;55.30;;;;;;5019313;28;19913;-89
2022/07/27 05:35:09;;;;;;;;;;;21.90;55.20;;;;;;5018489;28;19948;-90
2022/07/27 05:37:35;;;;;;;;;;;22.10;55.10;;;;;;5018446;28;19918;-89
2022/07/27 05:40:01;;;;;;;;;;;22.30;55.00;;;;;;5017480;28;19917;-90
2022/07/27 05:42:26;;;;;;;;;;;22.60;55.20;;;;;;5009890;28;19965;-90
2022/07/27 05:44:52;;;;;;;;;;;22.90;55.40;;;;;;5003404;28;19910;-89
2022/07/27 05:47:18;;;;;;;;;;;23.30;55.10;;;;;;5014792;28;19928;-89
2022/07/27 05:49:44;;;;;;;;;;;23.60;54.60;;;;;;5014819;28;19914;-91
2022/07/27 05:52:14;;;;;;;;;;;24.00;54.60;;;;;;5000019;28;19933;-91
2022/07/27 05:54:40;;;;;;;;;;;24.30;54.20;;;;;;5004777;28;20323;-91
2022/07/27 05:57:05;;;;;;;;;;;24.70;53.30;;;;;;4979227;28;20005;-91
2022/07/27 05:59:31;;;;;;;;;;;25.00;52.60;;;;;;4979667;28;20049;-90
2022/07/27 06:01:57;;;;;;;;;;;25.30;52.00;;;;;;4978416;28;20001;-90
2022/07/27 06:04:26;;;;;;;;;;;25.60;51.80;;;;;;4978087;28;20278;-90
2022/07/27 06:09:36;;;;;;;;;;;26.30;51.00;;;;;;4979907;28;19917;-90
2022/07/27 06:12:02;;;;;;;;;;;26.70;49.90;;;;;;4962491;28;19964;-91
2022/07/27 06:14:31;;;;;;;;;;;27.00;47.90;;;;;;4977747;28;19910;-91
2022/07/27 06:16:57;;;;;;;;;;;27.20;45.50;;;;;;4977270;28;19980;-90
2022/07/27 06:19:25;;;;;;;;;;;27.30;44.50;;;;;;4978425;28;19910;-90
2022/07/27 06:21:50;;;;;;;;;;;27.30;43.70;;;;;;4978969;28;19929;-90
2022/07/27 06:24:16;;;;;;;;;;;27.50;43.00;;;;;;4977836;28;19910;-90
2022/07/27 06:26:42;;;;;;;;;;;27.50;41.90;;;;;;4994210;28;19929;-90
2022/07/27 06:29:19;;;;;;;;;;;27.50;41.30;;;;;;4981725;28;19914;-91
2022/07/27 06:31:45;;;;;;;;;;;27.60;41.80;;;;;;5018009;28;20440;-90
2022/07/27 06:34:11;;;;;;;;;;;27.60;40.90;;;;;;5017029;28;19921;-91
2022/07/27 06:36:38;;;;;;;;;;;27.70;41.50;;;;;;5012539;28;21446;-90
2022/07/27 06:39:04;;;;;;;;;;;27.80;40.40;;;;;;4998051;28;20532;-91
2022/07/27 06:41:29;;;;;;;;;;;28.10;40.80;;;;;;5033586;28;19918;-91
2022/07/27 06:43:55;;;;;;;;;;;28.40;41.20;;;;;;5018702;28;19977;-91
2022/07/27 06:46:20;;;;;;;;;;;28.90;40.50;;;;;;4999111;28;19918;-92
2022/07/27 06:48:46;;;;;;;;;;;29.50;39.30;;;;;;4998314;28;19909;-90
2022/07/27 06:51:11;;;;;;;;;;;30.10;38.70;;;;;;4997439;28;19917;-91
2022/07/27 06:53:37;;;;;;;;;;;30.60;38.40;;;;;;4998425;28;20000;-91
2022/07/27 06:56:03;;;;;;;;;;;31.20;38.30;;;;;;5006714;28;19914;-90
2022/07/27 06:58:29;;;;;;;;;;;31.80;37.10;;;;;;5016549;28;19977;-89
2022/07/27 07:00:56;;;;;;;;;;;32.40;35.80;;;;;;5000298;28;19913;-89
2022/07/27 07:03:22;;;;;;;;;;;33.00;34.60;;;;;;4998676;28;19917;-90
2022/07/27 07:05:47;;;;;;;;;;;33.50;32.30;;;;;;5011265;28;20309;-90
2022/07/27 07:08:13;;;;;;;;;;;33.80;30.20;;;;;;5018896;28;19972;-90
2022/07/27 07:10:39;;;;;;;;;;;33.90;29.60;;;;;;5008444;28;19917;-90
2022/07/27 07:13:06;;;;;;;;;;;34.00;28.90;;;;;;5004361;28;19922;-89
2022/07/27 07:15:32;;;;;;;;;;;34.00;29.90;;;;;;5009971;28;19919;-90
2022/07/27 07:17:57;;;;;;;;;;;34.00;28.30;;;;;;5027234;28;19921;-91
2022/07/27 07:20:23;;;;;;;;;;;34.00;28.60;;;;;;5011296;28;19914;-90
2022/07/27 07:22:49;;;;;;;;;;;34.00;29.20;;;;;;4998859;28;19914;-91
2022/07/27 07:25:14;;;;;;;;;;;34.00;28.80;;;;;;4999270;28;19917;-90
2022/07/27 07:27:40;;;;;;;;;;;33.80;28.40;;;;;;4998238;28;19948;-91
2022/07/27 07:30:06;;;;;;;;;;;33.60;29.00;;;;;;4997727;28;19996;-91
2022/07/27 07:32:31;;;;;;;;;;;33.50;28.90;;;;;;5012805;28;19914;-90
2022/07/27 07:34:57;;;;;;;;;;;33.50;29.40;;;;;;5003441;28;19920;-91
2022/07/27 07:37:23;;;;;;;;;;;33.80;30.10;;;;;;4998671;28;19933;-90
2022/07/27 07:39:49;;;;;;;;;;;34.10;28.40;;;;;;5005584;28;19976;-91
2022/07/27 07:42:14;;;;;;;;;;;34.40;28.50;;;;;;5015710;28;20020;-89
2022/07/27 07:44:44;;;;;;;;;;;34.60;27.00;;;;;;5010322;28;20274;-90
2022/07/27 07:47:09;;;;;;;;;;;34.60;27.00;;;;;;5013604;28;20569;-89
2022/07/27 07:49:35;;;;;;;;;;;34.60;26.60;;;;;;5016267;28;19967;-89
2022/07/27 07:52:00;;;;;;;;;;;34.60;26.20;;;;;;5016174;28;19927;-90
2022/07/27 07:54:26;;;;;;;;;;;34.40;25.90;;;;;;5014729;28;20649;-90
2022/07/27 07:56:52;;;;;;;;;;;34.30;25.50;;;;;;4998575;28;19917;-90
2022/07/27 07:59:17;;;;;;;;;;;34.20;26.10;;;;;;4997655;28;19910;-90
2022/07/27 08:01:43;;;;;;;;;;;34.00;26.10;;;;;;4995834;28;19940;-91
2022/07/27 08:04:08;;;;;;;;;;;33.80;26.40;;;;;;4996644;28;19910;-92
2022/07/27 08:06:34;;;;;;;;;;;33.70;26.30;;;;;;5013247;28;19951;-91
2022/07/27 08:08:59;;;;;;;;;;;33.50;26.30;;;;;;5016198;28;19917;-89
2022/07/27 08:11:27;;;;;;;;;;;33.70;27.00;;;;;;5000863;28;19909;-89
2022/07/27 08:13:53;;;;;;;;;;;34.30;27.20;;;;;;4999469;28;19914;-91
2022/07/27 08:16:18;;;;;;;;;;;35.10;27.20;;;;;;4998512;28;19914;-90
2022/07/27 08:18:44;;;;;;;;;;;36.00;26.70;;;;;;5001418;28;19909;-90
2022/07/27 08:21:09;;;;;;;;;;;36.60;24.60;;;;;;5007210;28;19914;-89
2022/07/27 08:26:43;;;;;;;;;;;36.30;22.20;;;;;;5008384;28;20242;-90
2022/07/27 08:29:27;;;;;;;;;;;35.80;23.10;;;;;;5005434;28;19910;-91
2022/07/27 08:31:52;;;;;;;;;;;35.30;23.50;;;;;;5003446;28;20070;-90
2022/07/27 08:34:18;;;;;;;;;;;34.80;23.50;;;;;;4999209;28;19910;-90
2022/07/27 08:36:43;;;;;;;;;;;34.30;23.60;;;;;;4997972;28;20012;-90
2022/07/27 08:39:09;;;;;;;;;;;33.90;24.20;;;;;;4998305;28;19918;-91
2022/07/27 08:41:38;;;;;;;;;;;33.50;24.20;;;;;;5008812;28;19918;-90
2022/07/27 08:44:05;;;;;;;;;;;33.20;24.90;;;;;;5005416;28;19910;-89
2022/07/27 08:46:31;;;;;;;;;;;32.80;24.90;;;;;;4998057;28;19922;-90
2022/07/27 08:48:59;;;;;;;;;;;32.40;25.00;;;;;;5013240;28;19909;-90
2022/07/27 08:51:25;;;;;;;;;;;32.10;25.50;;;;;;5000138;28;19910;-91
2022/07/27 08:53:51;;;;;;;;;;;32.00;26.00;;;;;;5015089;28;20259;-90
2022/07/27 08:56:16;;;;;;;;;;;31.80;26.20;;;;;;4998332;28;20008;-89
2022/07/27 08:58:43;;;;;;;;;;;31.80;26.60;;;;;;4980661;28;19925;-90
2022/07/27 09:01:08;;;;;;;;;;;32.10;26.50;;;;;;4998422;28;19914;-91
2022/07/27 09:03:34;;;;;;;;;;;32.30;26.10;;;;;;5000032;28;19917;-90
2022/07/27 09:06:02;;;;;;;;;;;32.50;26.30;;;;;;4999383;28;19975;-90
2022/07/27 09:08:30;;;;;;;;;;;32.50;26.30;;;;;;5002469;28;19917;-90
2022/07/27 09:10:56;;;;;;;;;;;32.40;26.40;;;;;;5019364;28;20374;-91
2022/07/27 09:13:29;;;;;;;;;;;32.30;26.00;;;;;;5013758;28;20420;-90
2022/07/27 09:15:56;;;;;;;;;;;32.10;25.90;;;;;;4999606;28;20000;-90
2022/07/27 09:18:23;;;;;;;;;;;31.90;25.90;;;;;;5014404;28;19914;-91
2022/07/27 09:21:09;;;;;;;;;;;31.70;26.50;;;;;;4999220;28;19916;-91
2022/07/27 09:23:35;;;;;;;;;;;31.50;26.80;;;;;;4997684;28;20273;-90
2022/07/27 09:26:19;;;;;;;;;;;31.50;27.00;;;;;;4997758;28;19926;-91
2022/07/27 09:28:44;;;;;;;;;;;31.50;27.10;;;;;;5014474;28;19980;-90
2022/07/27 09:31:11;;;;;;;;;;;31.50;27.00;;;;;;4998995;28;19914;-90
2022/07/27 09:33:44;;;;;;;;;;;31.40;26.40;;;;;;4998497;28;19924;-91
2022/07/27 09:36:09;;;;;;;;;;;31.50;26.60;;;;;;5013549;28;19960;-90
2022/07/27 09:38:35;;;;;;;;;;;31.70;26.80;;;;;;4979150;28;20282;-90
2022/07/27 09:41:02;;;;;;;;;;;32.30;27.20;;;;;;4978410;28;19926;-90
2022/07/27 09:43:28;;;;;;;;;;;33.30;26.70;;;;;;4984000;28;20374;-90
2022/07/27 09:45:53;;;;;;;;;;;33.90;25.90;;;;;;4960152;28;19930;-91
2022/07/27 09:48:20;;;;;;;;;;;34.30;25.60;;;;;;4974790;28;19910;-90
2022/07/27 09:50:58;;;;;;;;;;;34.70;25.20;;;;;;4974898;28;19918;-91
2022/07/27 09:53:25;;;;;;;;;;;34.90;24.60;;;;;;4955115;29;19926;-84
2022/07/27 09:55:56;;;;;;;;;;;35.00;23.80;;;;;;4953877;28;19922;-83
2022/07/27 09:58:36;;;;;;;;;;;35.00;23.70;;;;;;4968395;28;20299;-83
2022/07/27 10:01:01;;;;;;;;;;;35.00;23.20;;;;;;4979149;28;19993;-84
2022/07/27 10:03:27;;;;;;;;;;;35.10;23.30;;;;;;4972924;28;19918;-83
2022/07/27 10:05:52;;;;;;;;;;;35.20;23.30;;;;;;4973205;28;19926;-83
2022/07/27 10:08:18;;;;;;;;;;;35.30;23.20;;;;;;4987445;28;19914;-83
2022/07/27 10:10:44;;;;;;;;;;;35.30;23.20;;;;;;4987045;28;19925;-83
2022/07/27 10:13:09;;;;;;;;;;;35.30;23.10;;;;;;4971081;28;19920;-83
2022/07/27 10:15:38;;;;;;;;;;;35.30;22.30;;;;;;4971105;28;19922;-83
2022/07/27 10:18:07;;;;;;;;;;;35.20;22.00;;;;;;4972771;28;19918;-84
2022/07/27 10:20:35;;;;;;;;;;;35.10;21.90;;;;;;4972551;28;20271;-84
2022/07/27 10:23:00;;;;;;;;;;;35.00;21.80;;;;;;4971180;28;19918;-83
2022/07/27 10:25:26;;;;;;;;;;;34.80;21.60;;;;;;4972557;28;20450;-83
2022/07/27 10:28:12;;;;;;;;;;;34.60;21.70;;;;;;4971110;28;19921;-83
2022/07/27 10:30:38;;;;;;;;;;;34.30;22.10;;;;;;4972625;28;20638;-83
2022/07/27 10:33:13;;;;;;;;;;;34.00;22.30;;;;;;4970839;28;19922;-83
2022/07/27 10:35:39;;;;;;;;;;;33.80;22.60;;;;;;4970960;28;19922;-84
2022/07/27 10:38:14;;;;;;;;;;;33.50;22.80;;;;;;4956280;28;20379;-83
2022/07/27 10:40:40;;;;;;;;;;;33.40;22.70;;;;;;4953101;28;20334;-83
2022/07/27 10:43:07;;;;;;;;;;;33.40;22.70;;;;;;4951686;29;19915;-83
2022/07/27 10:45:40;;;;;;;;;;;33.30;22.90;;;;;;4955357;28;19922;-88
2022/07/27 10:48:05;;;;;;;;;;;33.50;22.90;;;;;;4955224;28;20371;-87
2022/07/27 10:50:31;;;;;;;;;;;33.70;22.40;;;;;;4955135;29;19919;-88
2022/07/27 10:52:57;;;;;;;;;;;34.00;22.50;;;;;;4953925;29;19958;-87
2022/07/27 10:55:28;;;;;;;;;;;34.40;22.60;;;;;;4954943;29;20310;-87
2022/07/27 10:58:14;;;;;;;;;;;35.20;22.10;;;;;;4953775;29;19910;-87
2022/07/27 11:00:48;;;;;;;;;;;35.40;21.00;;;;;;4955117;29;19926;-87
2022/07/27 11:03:21;;;;;;;;;;;35.20;20.70;;;;;;4955485;29;19974;-87
2022/07/27 11:05:56;;;;;;;;;;;35.10;20.80;;;;;;4953401;29;19926;-87
2022/07/27 11:08:26;;;;;;;;;;;35.10;21.10;;;;;;4969281;28;19934;-87
2022/07/27 11:10:51;;;;;;;;;;;35.10;21.20;;;;;;4954569;28;19922;-87
2022/07/27 11:13:18;;;;;;;;;;;35.30;21.70;;;;;;4967901;28;19917;-88
2022/07/27 11:15:54;;;;;;;;;;;35.60;21.90;;;;;;4952792;29;20371;-88
2022/07/27 11:18:26;;;;;;;;;;;35.70;21.00;;;;;;4953385;29;19934;-88
2022/07/27 11:20:51;;;;;;;;;;;35.80;20.50;;;;;;4954951;28;19918;-87
2022/07/27 11:23:20;;;;;;;;;;;36.00;20.10;;;;;;4953102;29;20263;-88
2022/07/27 11:25:56;;;;;;;;;;;36.30;20.30;;;;;;4953554;29;19927;-87
2022/07/27 11:28:26;;;;;;;;;;;36.80;20.50;;;;;;4955454;28;19918;-86
2022/07/27 11:30:52;;;;;;;;;;;37.20;20.20;;;;;;4955439;28;19925;-86
2022/07/27 11:33:17;;;;;;;;;;;37.30;19.30;;;;;;4956015;29;19910;-86
2022/07/27 11:35:53;;;;;;;;;;;36.90;19.10;;;;;;4954361;29;19918;-87
2022/07/27 11:38:19;;;;;;;;;;;37.00;19.00;;;;;;4970973;28;19914;-87
2022/07/27 11:40:45;;;;;;;;;;;37.60;19.00;;;;;;4973445;28;20306;-87
2022/07/27 11:43:10;;;;;;;;;;;38.00;18.50;;;;;;4990195;28;20016;-87
2022/07/27 11:45:38;;;;;;;;;;;37.80;18.80;;;;;;4977687;28;19986;-87
2022/07/27 11:48:09;;;;;;;;;;;37.50;18.30;;;;;;4978951;28;19918;-87
2022/07/27 11:50:35;;;;;;;;;;;37.80;18.50;;;;;;4979111;28;19937;-86
2022/07/27 11:53:00;;;;;;;;;;;38.50;18.90;;;;;;4979173;28;20312;-87
2022/07/27 11:55:26;;;;;;;;;;;38.90;18.70;;;;;;4979352;28;19914;-87
2022/07/27 11:57:51;;;;;;;;;;;39.50;18.50;;;;;;4994607;28;19914;-87
2022/07/27 12:00:17;;;;;;;;;;;39.80;18.30;;;;;;4977661;28;19910;-88
2022/07/27 12:02:49;;;;;;;;;;;40.00;18.00;;;;;;4979251;28;19911;-87
2022/07/27 12:05:14;;;;;;;;;;;39.70;17.70;;;;;;4978358;28;19962;-87
2022/07/27 12:07:40;;;;;;;;;;;38.90;17.30;;;;;;4978910;28;19926;-87
2022/07/27 12:10:06;;;;;;;;;;;37.90;17.70;;;;;;4992660;28;19938;-87
2022/07/27 12:12:35;;;;;;;;;;;37.10;18.50;;;;;;4993381;28;19922;-87
2022/07/27 12:15:21;;;;;;;;;;;36.40;18.80;;;;;;4993140;28;19918;-88
2022/07/27 12:17:53;;;;;;;;;;;35.70;19.50;;;;;;4977894;28;20024;-87
2022/07/27 12:20:22;;;;;;;;;;;35.20;20.00;;;;;;4993191;28;19918;-87
2022/07/27 12:22:49;;;;;;;;;;;35.30;20.10;;;;;;4976707;28;19938;-86
2022/07/27 12:25:17;;;;;;;;;;;35.50;20.10;;;;;;4969865;28;19961;-88
2022/07/27 12:27:55;;;;;;;;;;;35.30;20.30;;;;;;4978422;28;19926;-88
2022/07/27 12:30:47;;;;;;;;;;;35.30;20.70;;;;;;4980000;28;20001;-87
2022/07/27 12:33:28;;;;;;;;;;;35.50;20.60;;;;;;4989340;28;19925;-88
2022/07/27 12:35:58;;;;;;;;;;;36.40;20.20;;;;;;5018700;28;19914;-86
2022/07/27 12:38:24;;;;;;;;;;;37.30;19.20;;;;;;5009692;28;19918;-86
2022/07/27 12:40:51;;;;;;;;;;;37.40;18.60;;;;;;4979689;28;19980;-86
2022/07/27 12:43:17;;;;;;;;;;;36.70;18.60;;;;;;4978242;28;19922;-86
2022/07/27 12:45:43;;;;;;;;;;;35.90;19.30;;;;;;4993553;28;20002;-87
2022/07/27 12:48:11;;;;;;;;;;;35.30;19.90;;;;;;4994996;28;19925;-87
2022/07/27 12:50:37;;;;;;;;;;;34.90;20.40;;;;;;4996735;28;19937;-88
2022/07/27 12:53:02;;;;;;;;;;;34.80;20.70;;;;;;4977536;28;19922;-88
2022/07/27 12:55:28;;;;;;;;;;;35.80;20.40;;;;;;4976263;28;20610;-88
2022/07/27 12:57:54;;;;;;;;;;;36.70;19.60;;;;;;4976901;28;19947;-88
2022/07/27 13:00:19;;;;;;;;;;;37.00;18.90;;;;;;4976577;28;19918;-88
2022/07/27 13:02:45;;;;;;;;;;;37.70;19.00;;;;;;4991714;28;19918;-88
2022/07/27 13:05:13;;;;;;;;;;;38.60;18.50;;;;;;4993161;28;19922;-88
2022/07/27 13:07:39;;;;;;;;;;;39.20;17.90;;;;;;4990627;28;20065;-88
2022/07/27 13:10:06;;;;;;;;;;;39.50;17.20;;;;;;4991255;28;19973;-88
2022/07/27 13:12:33;;;;;;;;;;;39.70;17.40;;;;;;4991045;28;20015;-87
2022/07/27 13:14:58;;;;;;;;;;;39.90;17.30;;;;;;4991374;28;20008;-87
2022/07/27 13:17:24;;;;;;;;;;;40.00;17.10;;;;;;4975113;28;20379;-87
2022/07/27 13:19:49;;;;;;;;;;;39.80;17.10;;;;;;4975295;28;19964;-87
2022/07/27 13:22:15;;;;;;;;;;;39.30;17.10;;;;;;4974549;28;20017;-87
2022/07/27 13:24:40;;;;;;;;;;;38.90;17.60;;;;;;4976596;28;19957;-87
2022/07/27 13:27:06;;;;;;;;;;;38.20;17.10;;;;;;4975330;28;20481;-88
2022/07/27 13:29:33;;;;;;;;;;;37.30;17.80;;;;;;5005918;28;19918;-88
2022/07/27 13:31:58;;;;;;;;;;;36.60;17.40;;;;;;5010903;28;20277;-88
2022/07/27 13:34:24;;;;;;;;;;;35.90;18.20;;;;;;4993710;28;19918;-87
2022/07/27 13:36:49;;;;;;;;;;;35.50;18.60;;;;;;4991371;28;19924;-88
2022/07/27 13:39:15;;;;;;;;;;;35.10;19.00;;;;;;4976523;28;19929;-87
2022/07/27 13:41:40;;;;;;;;;;;34.70;19.20;;;;;;4976400;28;19925;-87
2022/07/27 13:44:09;;;;;;;;;;;34.10;19.40;;;;;;4975755;28;19968;-88
2022/07/27 13:46:35;;;;;;;;;;;33.50;19.90;;;;;;4976298;28;20017;-86
2022/07/27 13:49:01;;;;;;;;;;;33.00;20.30;;;;;;4976469;28;19962;-86
2022/07/27 13:51:27;;;;;;;;;;;32.70;20.80;;;;;;4991653;28;19921;-86
2022/07/27 13:53:53;;;;;;;;;;;32.30;21.30;;;;;;4975127;28;19922;-87
2022/07/27 13:56:18;;;;;;;;;;;32.00;21.70;;;;;;4976505;28;19916;-86
2022/07/27 13:58:44;;;;;;;;;;;31.70;22.10;;;;;;4974758;28;19921;-86
2022/07/27 14:01:10;;;;;;;;;;;31.40;22.50;;;;;;4975724;28;19914;-86
2022/07/27 14:03:36;;;;;;;;;;;31.20;22.80;;;;;;4976480;28;19945;-87
2022/07/27 14:06:01;;;;;;;;;;;31.30;22.70;;;;;;4990223;28;19914;-86
2022/07/27 14:08:27;;;;;;;;;;;31.50;22.70;;;;;;4976347;28;19933;-86
2022/07/27 14:10:53;;;;;;;;;;;31.80;22.60;;;;;;4976143;28;20371;-87
2022/07/27 14:13:20;;;;;;;;;;;32.10;22.30;;;;;;4974641;28;19929;-86
2022/07/27 14:15:46;;;;;;;;;;;32.20;22.40;;;;;;4973723;28;19918;-87
2022/07/27 14:18:12;;;;;;;;;;;32.20;22.50;;;;;;4989696;28;19929;-86
2022/07/27 14:20:37;;;;;;;;;;;32.20;22.30;;;;;;4974832;28;20004;-87
2022/07/27 14:23:03;;;;;;;;;;;32.20;22.40;;;;;;4973390;28;19922;-86
2022/07/27 14:25:29;;;;;;;;;;;32.30;22.20;;;;;;4973763;28;19914;-86